Latest Weather Observations for King Island Airport

IDT60801

Issued at 4:05 pm EST Thursday 24 July 2014 (issued every 30 minutes, with the page automatically refreshed every 10 minutes)

About weather observations | Map of weather stations | Latest weather observations for TAS | Other Formats
Station Details ID: 098017 Name: KING ISLAND AIRPORT Lat: -39.88 Lon: 143.88 Height: 37.0 m
Data from the previous 72 hours. | See also: Recent months at King Island Airport
Date/Time
EST
Temp
°C
App
Temp
°C
Dew
Point
Rel
Hum
%
Delta-T
°C
Wind Press
QNH
hPa
Press
MSL
hPa
Rain
since 9 am
mm
Dir
 
Spd
km/h
Gust
km/h
Spd
kts
Gust
kts
24/04:00pm 11.9 7.3 9.5 85 1.2 ENE 24 32 13 17 1013.6 1013.6 0.2
24/03:30pm 12.7 8.1 9.5 81 1.6 NE 24 35 13 19 1013.6 - 0.2
24/03:00pm 12.8 7.8 9.4 80 1.7 NE 26 35 14 19 1013.5 1013.5 0.2
24/02:30pm 13.4 7.7 9.8 79 1.9 NNE 30 35 16 19 1013.7 - 0.2
24/02:00pm 12.9 8.4 10.1 83 1.4 NE 24 33 13 18 1013.9 1013.9 0.2
24/01:30pm 12.0 8.8 10.1 88 1.0 NE 17 24 9 13 1014.3 - 0.2
24/01:00pm 11.8 8.0 9.9 88 1.0 NE 20 30 11 16 1014.8 1014.8 0.2
24/12:30pm 12.5 9.1 10.4 87 1.1 NE 19 26 10 14 1015.1 - 0.0
24/12:00pm 12.0 7.5 10.1 88 1.0 NE 24 30 13 16 1015.7 1015.7 0.0
24/11:30am 12.4 8.7 10.0 85 1.2 NE 20 26 11 14 1016.0 - 0.0
24/11:00am 12.4 8.7 10.1 86 1.2 NE 20 28 11 15 1016.2 1016.2 0.0
24/10:30am 12.5 9.8 10.4 87 1.1 ENE 15 24 8 13 1016.3 - 0.0
24/10:00am 11.8 9.1 10.2 90 0.8 ENE 15 19 8 10 1016.3 1016.3 0.0
24/09:30am 10.8 8.2 9.4 91 0.7 E 13 15 7 8 1016.3 - 0.0
24/09:00am 10.3 7.3 9.1 92 0.6 ENE 15 19 8 10 1016.3 1016.3 0.2
24/08:30am 9.8 6.6 8.6 92 0.6 ENE 15 20 8 11 1016.2 - 0.2
24/08:00am 9.7 6.1 8.5 92 0.6 ENE 17 22 9 12 1015.9 1015.9 0.2
24/07:30am 9.5 5.9 8.4 93 0.5 ENE 17 24 9 13 1015.9 - 0.2
24/07:00am 9.1 6.2 8.0 93 0.5 ENE 13 19 7 10 1015.9 1015.9 0.0
24/06:30am 8.4 5.3 7.3 93 0.5 ENE 13 17 7 9 1016.0 - 0.0
24/06:00am 7.9 5.0 6.7 92 0.6 ENE 11 13 6 7 1016.0 1016.0 0.0
24/05:30am 8.1 4.9 6.9 92 0.6 ENE 13 15 7 8 1016.1 - 0.0
24/05:00am 8.6 5.1 7.4 92 0.6 ENE 15 17 8 9 1016.0 1016.0 0.0
24/04:30am 8.5 5.5 7.6 94 0.4 ENE 13 19 7 10 1016.3 - 0.0
24/04:00am 8.4 5.4 7.6 95 0.4 ENE 13 17 7 9 1016.6 1016.6 0.0
24/03:30am 7.8 5.0 7.1 95 0.3 NE 11 13 6 7 1016.7 - 0.0
24/03:00am 8.0 5.3 7.4 96 0.3 ENE 11 15 6 8 1016.9 1016.9 0.0
24/02:30am 7.5 4.3 6.9 96 0.3 E 13 15 7 8 1016.8 - 0.0
24/02:00am 6.4 2.6 5.7 95 0.3 E 15 17 8 9 1016.9 1016.9 0.0
24/01:30am 6.4 2.6 5.7 95 0.3 E 15 17 8 9 1017.1 - 0.0
24/01:00am 5.9 1.9 5.0 94 0.4 E 15 15 8 8 1017.3 1017.3 0.0
24/12:30am 6.6 3.1 5.6 93 0.4 E 13 15 7 8 1017.5 - 0.0
24/12:00am 7.4 4.4 6.2 92 0.5 ENE 11 13 6 7 1017.9 1017.9 0.0
 
Date/Time
EST
Temp
°C
App
Temp
°C
Dew
Point
Rel
Hum
%
Delta-T
°C
Wind Press
QNH
hPa
Press
MSL
hPa
Rain
since 9 am
mm
Dir
 
Spd
km/h
Gust
km/h
Spd
kts
Gust
kts
23/11:30pm 7.6 4.3 6.4 92 0.5 ENE 13 17 7 9 1018.3 - 0.0
23/11:00pm 8.0 5.2 6.8 92 0.6 ENE 11 15 6 8 1018.5 1018.5 0.0
23/10:30pm 7.7 4.4 6.6 93 0.5 ENE 13 17 7 9 1018.8 - 0.0
23/10:00pm 8.1 4.9 6.9 92 0.6 ENE 13 15 7 8 1019.0 1019.0 0.0
23/09:30pm 8.4 4.5 7.2 92 0.6 ENE 17 20 9 11 1019.1 - 0.0
23/09:00pm 8.2 4.3 7.1 93 0.5 ENE 17 19 9 10 1019.3 1019.3 0.0
23/08:30pm 8.0 4.9 7.1 94 0.4 E 13 17 7 9 1019.5 - 0.0
23/08:00pm 7.4 3.7 6.3 93 0.5 E 15 17 8 9 1019.5 1019.5 0.0
23/07:30pm 7.5 4.9 6.3 92 0.5 E 9 11 5 6 1019.8 - 0.0
23/07:00pm 8.1 5.6 6.7 91 0.6 ENE 9 11 5 6 1019.7 1019.7 0.0
23/06:30pm 8.6 5.8 7.1 90 0.7 ENE 11 13 6 7 1019.6 - 0.0
23/06:00pm 8.4 5.2 6.7 89 0.8 E 13 13 7 7 1019.4 1019.4 0.0
23/05:30pm 9.3 6.2 7.3 87 0.9 E 13 15 7 8 1019.5 - 0.0
23/05:00pm 10.2 7.2 7.6 84 1.2 ENE 13 17 7 9 1019.7 1019.7 0.0
23/04:30pm 10.9 7.6 8.0 82 1.4 ENE 15 19 8 10 1019.6 - 0.0
23/04:00pm 11.6 8.4 8.3 80 1.6 NE 15 19 8 10 1019.6 1019.6 0.0
23/03:30pm 11.7 8.3 7.8 77 1.9 NE 15 22 8 12 1019.7 - 0.0
23/03:00pm 11.7 7.5 7.4 75 2.1 NE 19 24 10 13 1019.8 1019.8 0.0
23/02:30pm 12.0 8.2 7.5 74 2.2 ENE 17 24 9 13 1019.9 - 0.0
23/02:00pm 12.5 8.2 7.0 69 2.6 ENE 19 26 10 14 1020.3 1020.3 0.0
23/01:30pm 12.5 8.0 6.8 68 2.7 NE 20 28 11 15 1020.5 - 0.0
23/01:00pm 12.8 8.6 7.3 69 2.7 NE 19 30 10 16 1021.0 1021.0 0.0
23/12:30pm 13.1 9.3 7.5 69 2.7 ENE 17 24 9 13 1021.6 - 0.0
23/12:00pm 13.0 8.5 7.0 67 2.9 NE 20 26 11 14 1022.3 1022.3 0.0
23/11:30am 12.1 7.7 6.6 69 2.6 NE 19 30 10 16 1022.9 - 0.0
23/11:00am 12.0 8.5 7.1 72 2.3 ENE 15 19 8 10 1023.3 1023.4 0.0
23/10:30am 11.3 8.3 7.6 78 1.8 ENE 13 17 7 9 1023.5 - 0.0
23/10:00am 10.4 8.2 9.3 93 0.5 ENE 11 15 6 8 1023.6 1023.7 0.0
23/09:30am 8.8 6.8 8.5 98 0.1 E 9 9 5 5 1023.6 - 0.0
23/09:00am 6.6 3.7 6.3 98 0.1 E 11 13 6 7 1023.4 1023.5 0.2
23/08:30am 5.2 2.0 5.1 99 0.0 ESE 11 13 6 7 1023.5 - 0.2
23/08:00am 3.9 0.8 3.8 99 0.0 ESE 9 11 5 6 1023.7 1023.8 0.2
23/07:30am 3.5 0.7 3.2 98 0.1 ESE 7 9 4 5 1023.9 - 0.2
23/07:00am 3.2 0.3 2.8 97 0.2 ESE 7 9 4 5 1023.7 1023.8 0.2
23/06:44am 5.0 2.1 4.7 98 0.1 ESE 9 9 5 5 1023.6 - 0.2
23/06:30am 3.5 0.7 3.1 97 0.2 ESE 7 7 4 4 1023.6 - 0.2
23/06:25am 3.5 0.7 3.1 97 0.2 ESE 7 9 4 5 1023.5 - 0.2
23/06:00am 3.8 1.1 3.5 98 0.1 ESE 7 7 4 4 1023.5 1023.6 0.2
23/05:48am 3.4 0.8 3.0 97 0.2 E 6 7 3 4 1023.4 - 0.2
23/05:30am 3.3 0.5 2.9 97 0.2 ESE 7 9 4 5 1023.5 - 0.2
23/05:27am 3.5 0.7 3.1 97 0.2 ESE 7 7 4 4 1023.5 - 0.2
23/05:00am 3.3 0.5 2.9 97 0.2 ESE 7 7 4 4 1023.6 1023.7 0.2
23/04:30am 3.0 0.1 2.4 96 0.2 ESE 7 9 4 5 1023.7 - 0.2
23/04:00am 4.5 2.0 3.9 96 0.2 SE 6 7 3 4 1023.9 1024.0 0.2
23/03:30am 3.8 1.0 3.2 96 0.2 ESE 7 9 4 5 1023.8 - 0.2
23/03:00am 4.0 1.2 3.3 95 0.3 SE 7 9 4 5 1024.0 1024.1 0.2
23/02:30am 5.4 2.5 4.7 95 0.3 SE 9 9 5 5 1024.1 - 0.2
23/02:00am 6.3 3.6 5.7 96 0.3 ESE 9 11 5 6 1024.3 1024.4 0.2
23/01:30am 6.2 3.5 5.6 96 0.3 SE 9 11 5 6 1024.4 - 0.2
23/01:00am 4.9 2.4 4.0 94 0.4 ESE 6 7 3 4 1024.6 1024.7 0.2
23/12:30am 6.2 3.9 5.6 96 0.3 ESE 7 9 4 5 1024.7 - 0.2
23/12:00am 4.9 2.5 4.2 95 0.3 ESE 6 7 3 4 1024.9 1025.0 0.2
 
Date/Time
EST
Temp
°C
App
Temp
°C
Dew
Point
Rel
Hum
%
Delta-T
°C
Wind Press
QNH
hPa
Press
MSL
hPa
Rain
since 9 am
mm
Dir
 
Spd
km/h
Gust
km/h
Spd
kts
Gust
kts
22/11:30pm 5.5 2.6 4.8 95 0.3 ESE 9 11 5 6 1024.7 - 0.2
22/11:00pm 4.3 1.2 3.4 94 0.4 ESE 9 9 5 5 1024.9 1025.0 0.2
22/10:30pm 4.4 1.6 3.4 93 0.4 ESE 7 9 4 5 1025.0 - 0.2
22/10:00pm 6.5 3.8 5.5 93 0.4 ESE 9 11 5 6 1025.0 1025.1 0.2
22/09:30pm 6.7 4.4 5.7 93 0.4 ESE 7 7 4 4 1025.2 - 0.2
22/09:00pm 6.9 4.2 5.8 93 0.5 ESE 9 9 5 5 1025.1 1025.2 0.2
22/08:30pm 6.1 3.6 4.7 91 0.6 ESE 7 7 4 4 1025.1 - 0.2
22/08:00pm 7.0 4.7 5.6 91 0.6 ESE 7 9 4 5 1025.0 1025.1 0.2
22/07:30pm 7.5 5.3 6.1 91 0.6 ESE 7 9 4 5 1025.1 - 0.2
22/07:00pm 7.4 5.1 5.7 89 0.8 ESE 7 9 4 5 1025.0 1025.1 0.2
22/06:30pm 8.8 6.7 6.8 87 0.9 ESE 7 7 4 4 1024.8 - 0.2
22/06:00pm 9.5 7.6 6.9 84 1.2 E 6 7 3 4 1024.7 1024.8 0.2
22/05:30pm 10.2 7.7 6.4 77 1.8 ENE 9 11 5 6 1024.6 - 0.2
22/05:00pm 12.3 11.7 7.4 72 2.4 CALM 0 0 0 0 1024.5 1024.6 0.2
22/04:30pm 13.0 10.8 6.4 64 3.2 NNW 7 7 4 4 1024.4 - 0.2
22/04:00pm 12.8 10.6 6.4 65 3.0 NNW 7 9 4 5 1024.5 1024.6 0.2
22/03:30pm 13.7 10.7 5.8 59 3.7 NW 11 13 6 7 1024.5 - 0.2
22/03:00pm 13.7 11.4 5.6 58 3.8 ENE 7 11 4 6 1024.3 1024.4 0.2
22/02:30pm 13.6 11.3 5.7 59 3.7 ENE 7 11 4 6 1024.4 - 0.2
22/02:00pm 13.2 10.7 4.9 57 3.8 N 7 11 4 6 1024.7 1024.8 0.2
22/01:30pm 13.1 10.4 3.7 53 4.2 NNE 7 11 4 6 1024.9 - 0.2
22/01:00pm 12.9 10.5 5.3 60 3.5 ENE 7 9 4 5 1025.2 1025.3 0.2
22/12:30pm 13.0 10.5 4.9 58 3.7 ENE 7 9 4 5 1025.6 - 0.2
22/12:00pm 13.9 11.5 5.3 56 4.0 N 7 11 4 6 1026.0 1026.1 0.2
22/11:30am 12.7 10.4 5.8 63 3.2 N 7 9 4 5 1026.5 - 0.2
22/11:00am 12.0 9.9 6.5 69 2.6 NNE 7 9 4 5 1026.7 1026.8 0.2
22/10:30am 11.6 10.3 9.9 89 0.9 E 7 9 4 5 1026.8 - 0.2
22/10:00am 9.8 8.2 8.9 94 0.4 E 7 7 4 4 1026.6 1026.7 0.2
22/09:30am 9.3 7.7 8.7 96 0.3 ESE 7 9 4 5 1026.5 - 0.0
22/09:00am 7.5 5.5 7.1 97 0.2 ESE 7 9 4 5 1026.5 1026.6 0.0
22/08:30am 6.5 4.3 6.1 97 0.2 E 7 7 4 4 1026.3 - 0.0
22/08:00am 6.1 3.8 5.7 97 0.2 ESE 7 9 4 5 1026.0 1026.1 0.0
22/07:30am 4.6 2.0 4.2 97 0.2 ESE 7 9 4 5 1025.7 - 0.0
22/07:00am 4.3 1.3 3.9 97 0.2 ESE 9 9 5 5 1025.5 1025.6 0.0
22/06:30am 3.8 0.7 3.4 97 0.2 ESE 9 11 5 6 1025.2 - 0.0
22/06:00am 4.7 1.7 4.1 96 0.3 ESE 9 11 5 6 1025.1 1025.2 0.0
22/05:30am 5.9 3.1 5.3 96 0.3 ESE 9 9 5 5 1025.1 - 0.0
22/05:00am 5.9 3.1 5.3 96 0.3 ESE 9 9 5 5 1025.0 1025.1 0.0
22/04:30am 4.8 2.2 4.1 95 0.3 ESE 7 9 4 5 1024.9 - 0.0
22/04:00am 5.6 2.4 4.9 95 0.3 ESE 11 11 6 6 1024.7 1024.8 0.0
22/03:30am 5.8 3.0 5.1 95 0.3 ESE 9 9 5 5 1024.9 - 0.0
22/03:00am 6.5 3.5 5.8 95 0.3 ESE 11 11 6 6 1025.1 1025.2 0.0
22/02:30am 6.4 3.7 5.7 95 0.3 ESE 9 9 5 5 1025.2 - 0.0
22/02:00am 5.9 3.5 5.2 95 0.3 ESE 7 7 4 4 1025.1 1025.2 0.0
22/01:30am 5.7 3.2 4.8 94 0.4 ESE 7 9 4 5 1025.1 - 0.0
22/01:00am 6.2 3.8 5.3 94 0.4 ESE 7 9 4 5 1025.2 1025.3 0.0
22/12:30am 6.0 3.2 5.1 94 0.4 ESE 9 9 5 5 1025.3 - 0.0
22/12:00am 5.6 2.3 4.7 94 0.4 ESE 11 11 6 6 1025.4 1025.5 0.0
 
Date/Time
EST
Temp
°C
App
Temp
°C
Dew
Point
Rel
Hum
%
Delta-T
°C
Wind Press
QNH
hPa
Press
MSL
hPa
Rain
since 9 am
mm
Dir
 
Spd
km/h
Gust
km/h
Spd
kts
Gust
kts
21/11:30pm 6.1 3.4 5.4 95 0.3 ESE 9 9 5 5 1025.6 - 0.0
21/11:00pm 5.6 4.0 4.7 94 0.4 E 2 7 1 4 1025.6 1025.7 0.0
21/10:30pm 5.7 3.2 4.8 94 0.4 ESE 7 9 4 5 1025.6 - 0.0
21/10:00pm 6.1 3.7 5.1 93 0.4 ESE 7 9 4 5 1025.8 1025.9 0.0
21/09:30pm 5.7 2.8 4.5 92 0.5 ESE 9 9 5 5 1025.9 - 0.0
21/09:00pm 6.1 3.8 4.6 90 0.6 ESE 6 7 3 4 1025.8 1025.9 0.0
21/08:30pm 6.9 4.4 4.7 86 1.0 ESE 7 9 4 5 1025.6 - 0.0
21/08:00pm 8.1 5.5 5.9 86 1.0 ESE 9 9 5 5 1025.5 1025.6 0.0
21/07:30pm 8.5 5.9 6.1 85 1.1 ESE 9 11 5 6 1025.4 - 0.0
21/07:00pm 8.7 6.5 6.3 85 1.1 ESE 7 9 4 5 1025.3 1025.4 0.0
21/06:30pm 8.8 6.7 6.8 87 0.9 E 7 9 4 5 1025.1 - 0.0
21/06:00pm 9.3 8.6 7.1 86 1.0 CALM 0 0 0 0 1024.9 1025.0 0.0
21/05:30pm 9.9 8.1 7.3 84 1.2 ENE 6 7 3 4 1024.7 - 0.0
21/05:00pm 10.6 8.7 7.7 82 1.4 NE 7 9 4 5 1024.7 1024.8 0.0
21/04:30pm 11.5 9.3 7.8 78 1.8 NE 9 11 5 6 1024.6 - 0.0

Other Formats:

Comma delimited format used in spreadsheet applications
http://www.bom.gov.au/fwo/IDT60801/IDT60801.94850.axf

JavaScript Object Notation format (JSON) in row-major order
http://www.bom.gov.au/fwo/IDT60801/IDT60801.94850.json